Time;durP1;ratioP1;P1;durP2;ratioP2;P2;SDS_P1;SDS_P2;PMS_P1;PMS_P2;Temp;Humidity;BMP_temperature;BMP_pressure;BME280_temperature;BME280_humidity;BME280_pressure;Samples;Min_cycle;Max_cycle;Signal;HPM_P1;HPM_P2
2023/06/10 00:00:51;;;;;;;13.60;9.02;;;;;;;20.94;100.00;101261.84;5247024;28;20047;-70
2023/06/10 00:03:23;;;;;;;12.32;8.02;;;;;;;20.91;100.00;101264.19;5245382;28;20031;-70
2023/06/10 00:05:54;;;;;;;14.48;9.48;;;;;;;20.90;100.00;101260.63;5226067;28;20263;-69
2023/06/10 00:08:25;;;;;;;10.65;8.15;;;;;;;20.85;100.00;101260.47;5242717;28;20052;-70
2023/06/10 00:10:55;;;;;;;15.23;8.77;;;;;;;20.81;100.00;101261.13;5246978;28;20033;-69
2023/06/10 00:13:26;;;;;;;15.32;8.27;;;;;;;20.73;100.00;101256.78;5246788;28;20064;-69
2023/06/10 00:15:56;;;;;;;10.68;9.02;;;;;;;20.69;100.00;101259.16;5246089;28;20108;-69
2023/06/10 00:18:27;;;;;;;12.90;9.38;;;;;;;20.63;100.00;101261.91;5246767;28;20021;-69
2023/06/10 00:21:04;;;;;;;11.95;8.32;;;;;;;20.56;100.00;101255.69;5239188;28;20094;-69
2023/06/10 00:23:37;;;;;;;11.77;8.95;;;;;;;20.54;100.00;101268.72;5241388;28;20675;-70
2023/06/10 00:26:08;;;;;;;12.18;8.50;;;;;;;20.49;100.00;101265.81;5246139;28;20028;-69
2023/06/10 00:28:38;;;;;;;16.73;8.50;;;;;;;20.44;100.00;101261.00;5237171;28;20036;-69
2023/06/10 00:31:09;;;;;;;11.30;8.68;;;;;;;20.38;100.00;101262.72;5242788;28;20485;-69
2023/06/10 00:33:39;;;;;;;18.27;8.85;;;;;;;20.34;100.00;101258.75;5246754;28;20029;-69
2023/06/10 00:36:10;;;;;;;14.02;8.50;;;;;;;20.29;100.00;101258.59;5246055;28;20035;-69
2023/06/10 00:38:40;;;;;;;11.13;9.55;;;;;;;20.27;100.00;101257.97;5234391;28;20604;-69
2023/06/10 00:41:11;;;;;;;13.35;9.40;;;;;;;20.26;100.00;101256.28;5245133;28;20020;-69
2023/06/10 00:43:41;;;;;;;10.77;8.13;;;;;;;20.25;100.00;101261.97;5246718;28;20111;-69
2023/06/10 00:46:13;;;;;;;17.65;8.90;;;;;;;20.20;100.00;101268.06;5245675;28;20025;-69
2023/06/10 00:48:44;;;;;;;13.93;8.98;;;;;;;20.20;100.00;101265.34;5245091;28;20551;-70
2023/06/10 00:51:16;;;;;;;13.70;9.18;;;;;;;20.20;100.00;101267.25;5233409;28;20024;-70
2023/06/10 00:53:47;;;;;;;15.30;9.40;;;;;;;20.18;100.00;101264.72;5245621;28;20031;-70
2023/06/10 00:56:17;;;;;;;15.32;9.65;;;;;;;20.17;100.00;101263.06;5245538;28;20029;-70
2023/06/10 00:58:48;;;;;;;13.32;9.50;;;;;;;20.16;100.00;101266.84;5245963;28;20020;-69
2023/06/10 01:01:19;;;;;;;11.90;8.65;;;;;;;20.13;100.00;101262.69;5246618;28;20028;-69
2023/06/10 01:03:50;;;;;;;20.38;9.27;;;;;;;20.10;100.00;101265.00;5246658;28;20036;-70
2023/06/10 01:06:39;;;;;;;15.45;10.35;;;;;;;20.06;100.00;101261.03;5245687;28;20099;-70
2023/06/10 01:09:30;;;;;;;15.18;9.50;;;;;;;20.04;100.00;101257.72;5236877;28;20410;-70
2023/06/10 01:12:33;;;;;;;11.85;9.77;;;;;;;20.08;100.00;101258.91;5219608;28;20497;-70
2023/06/10 01:15:05;;;;;;;15.85;9.68;;;;;;;20.01;100.00;101258.97;5245901;28;20040;-70
2023/06/10 01:17:59;;;;;;;13.88;9.50;;;;;;;19.96;100.00;101266.97;5229817;28;20025;-69
2023/06/10 01:20:32;;;;;;;15.20;9.30;;;;;;;19.92;100.00;101260.28;5230353;28;20104;-69
2023/06/10 01:23:03;;;;;;;14.77;9.93;;;;;;;19.89;100.00;101261.56;5235809;28;20024;-69
2023/06/10 01:25:37;;;;;;;15.82;9.98;;;;;;;19.83;100.00;101262.44;5245882;28;20385;-69
2023/06/10 01:28:14;;;;;;;14.63;9.93;;;;;;;19.75;100.00;101254.50;5245410;28;20477;-69
2023/06/10 01:31:07;;;;;;;15.32;10.10;;;;;;;19.68;100.00;101264.59;5245702;28;20029;-69
2023/06/10 01:33:58;;;;;;;15.27;10.10;;;;;;;19.63;100.00;101261.69;5230744;28;20035;-70
2023/06/10 01:36:30;;;;;;;15.30;10.25;;;;;;;19.56;100.00;101266.28;5244891;28;20032;-69
2023/06/10 01:39:02;;;;;;;15.52;10.38;;;;;;;19.48;100.00;101264.66;5245152;28;20028;-70
2023/06/10 01:41:33;;;;;;;16.98;10.35;;;;;;;19.41;100.00;101259.22;5245557;28;20052;-70
2023/06/10 01:44:04;;;;;;;13.90;10.20;;;;;;;19.39;100.00;101257.78;5245368;28;20422;-70
2023/06/10 01:46:34;;;;;;;21.73;11.00;;;;;;;19.37;100.00;101257.13;5244730;28;20035;-70
2023/06/10 01:49:05;;;;;;;16.00;9.98;;;;;;;19.31;100.00;101250.66;5242196;28;20397;-69
2023/06/10 01:51:36;;;;;;;15.25;10.35;;;;;;;19.28;100.00;101253.84;5235052;28;20051;-70
2023/06/10 01:54:06;;;;;;;15.63;10.10;;;;;;;19.27;100.00;101256.75;5241080;28;20017;-69
2023/06/10 01:56:37;;;;;;;15.55;10.60;;;;;;;19.22;100.00;101256.56;5223940;28;20025;-70
2023/06/10 01:59:07;;;;;;;14.00;9.90;;;;;;;19.19;100.00;101257.00;5243268;28;20078;-69
2023/06/10 02:01:38;;;;;;;15.43;10.95;;;;;;;19.14;100.00;101261.19;5245122;28;20367;-70
2023/06/10 02:04:09;;;;;;;17.48;10.48;;;;;;;19.09;100.00;101258.25;5244542;28;20773;-69
2023/06/10 02:06:40;;;;;;;14.52;10.25;;;;;;;19.05;100.00;101257.00;5244305;28;20017;-69
2023/06/10 02:09:10;;;;;;;16.00;10.18;;;;;;;19.03;100.00;101253.69;5245087;28;20528;-69
2023/06/10 02:11:41;;;;;;;16.50;10.73;;;;;;;19.03;100.00;101261.00;5244952;28;20024;-69
2023/06/10 02:14:11;;;;;;;17.38;11.40;;;;;;;19.01;100.00;101263.09;5244833;28;20104;-69
2023/06/10 02:16:45;;;;;;;17.02;10.80;;;;;;;18.98;100.00;101258.91;5243907;28;20489;-69
2023/06/10 02:19:16;;;;;;;15.52;10.45;;;;;;;18.95;100.00;101258.50;5245049;28;20389;-69
2023/06/10 02:21:47;;;;;;;14.30;11.32;;;;;;;18.92;100.00;101265.19;5230667;28;20385;-69
2023/06/10 02:24:18;;;;;;;18.10;11.18;;;;;;;18.87;100.00;101259.53;5244861;28;20024;-69
2023/06/10 02:26:50;;;;;;;21.48;12.18;;;;;;;18.80;100.00;101261.44;5243821;28;20436;-69
2023/06/10 02:29:21;;;;;;;16.85;11.02;;;;;;;18.74;100.00;101271.28;5244628;28;20074;-69
2023/06/10 02:31:52;;;;;;;17.30;11.50;;;;;;;18.72;100.00;101270.63;5244842;28;20067;-69
2023/06/10 02:34:23;;;;;;;18.45;11.38;;;;;;;18.68;100.00;101266.69;5244611;28;20085;-69
2023/06/10 02:36:53;;;;;;;17.08;11.45;;;;;;;18.62;100.00;101264.75;5244002;28;20719;-69
2023/06/10 02:39:24;;;;;;;20.23;11.23;;;;;;;18.58;100.00;101267.06;5227194;28;20171;-69
2023/06/10 02:41:54;;;;;;;14.63;11.25;;;;;;;18.59;100.00;101267.91;5224667;28;20140;-69
2023/06/10 02:44:25;;;;;;;20.63;11.93;;;;;;;18.56;100.00;101280.00;5225350;28;20032;-69
2023/06/10 02:46:56;;;;;;;16.30;11.10;;;;;;;18.49;100.00;101278.34;5224521;28;20553;-69
2023/06/10 02:52:12;;;;;;;16.30;11.98;;;;;;;18.46;100.00;101276.88;5224861;28;20031;-68
2023/06/10 02:54:43;;;;;;;19.50;12.35;;;;;;;18.45;100.00;101272.47;5224442;28;20025;-68
2023/06/10 02:57:14;;;;;;;17.38;11.73;;;;;;;18.42;100.00;101281.03;5223857;28;20025;-69
2023/06/10 02:59:45;;;;;;;21.33;12.25;;;;;;;18.41;100.00;101281.25;5224250;28;20021;-69
2023/06/10 03:02:15;;;;;;;18.13;11.90;;;;;;;18.41;100.00;101281.25;5224384;28;20100;-69
2023/06/10 03:04:47;;;;;;;15.07;11.73;;;;;;;18.36;100.00;101285.41;5224324;28;20079;-69
2023/06/10 03:07:18;;;;;;;20.52;12.70;;;;;;;18.38;100.00;101279.81;5224145;28;20029;-69
2023/06/10 03:09:49;;;;;;;19.95;12.48;;;;;;;18.38;100.00;101285.25;5224494;28;20086;-69
2023/06/10 03:12:20;;;;;;;15.18;11.57;;;;;;;18.37;100.00;101289.84;5223862;28;20021;-69
2023/06/10 03:14:50;;;;;;;16.48;12.02;;;;;;;18.32;100.00;101289.63;5224089;28;20221;-69
2023/06/10 03:17:21;;;;;;;16.15;12.27;;;;;;;18.28;100.00;101295.66;5227235;28;20021;-69
2023/06/10 03:19:51;;;;;;;20.73;12.82;;;;;;;18.22;100.00;101291.88;5228534;28;20024;-69
2023/06/10 03:22:21;;;;;;;28.10;12.77;;;;;;;18.20;100.00;101301.28;5232762;28;20017;-69
2023/06/10 03:24:53;;;;;;;20.15;12.60;;;;;;;18.18;100.00;101303.38;5248284;28;20055;-68
2023/06/10 03:27:23;;;;;;;20.15;12.85;;;;;;;18.14;100.00;101297.50;5234466;28;20055;-69
2023/06/10 03:29:54;;;;;;;21.17;12.38;;;;;;;18.13;100.00;101303.16;5246972;28;20024;-69
2023/06/10 03:32:25;;;;;;;19.55;12.55;;;;;;;18.09;100.00;101302.72;5234126;28;20112;-69
2023/06/10 03:34:57;;;;;;;27.77;13.05;;;;;;;18.07;100.00;101305.66;5239904;28;20047;-69
2023/06/10 03:37:27;;;;;;;28.27;13.57;;;;;;;18.08;100.00;101301.06;5227457;28;20035;-69
2023/06/10 03:39:58;;;;;;;20.63;12.95;;;;;;;18.06;100.00;101308.53;5228027;28;20025;-69
2023/06/10 03:42:28;;;;;;;24.95;13.70;;;;;;;18.04;100.00;101307.94;5229573;28;20042;-69
2023/06/10 03:44:58;;;;;;;19.95;13.27;;;;;;;18.02;100.00;101318.13;5228144;28;20021;-70
2023/06/10 03:47:34;;;;;;;19.83;13.15;;;;;;;18.01;100.00;101305.59;5228466;28;20033;-70
2023/06/10 03:50:05;;;;;;;20.42;13.88;;;;;;;18.00;100.00;101310.19;5227885;28;20021;-70
2023/06/10 03:52:39;;;;;;;20.42;13.38;;;;;;;18.01;100.00;101302.88;5228942;28;20471;-71
2023/06/10 03:55:11;;;;;;;19.15;14.10;;;;;;;18.00;100.00;101301.22;5228041;28;20028;-69
2023/06/10 03:57:41;;;;;;;19.13;13.43;;;;;;;18.05;100.00;101306.88;5228073;28;20032;-70
2023/06/10 04:00:12;;;;;;;20.33;13.10;;;;;;;18.08;100.00;101312.75;5227775;28;20025;-70
2023/06/10 04:05:30;;;;;;;20.00;13.00;;;;;;;18.14;100.00;101315.69;5228245;28;20021;-70
2023/06/10 04:08:01;;;;;;;20.98;14.00;;;;;;;18.17;100.00;101316.09;5238795;28;20496;-70
2023/06/10 04:10:31;;;;;;;20.95;12.95;;;;;;;18.19;100.00;101302.31;5234675;28;20078;-70
2023/06/10 04:13:03;;;;;;;22.20;13.90;;;;;;;18.23;100.00;101309.84;5244282;28;20470;-70
2023/06/10 04:15:33;;;;;;;21.85;12.75;;;;;;;18.23;100.00;101312.56;5245958;28;20036;-70
2023/06/10 04:18:04;;;;;;;17.80;12.48;;;;;;;18.25;100.00;101315.06;5234077;28;20024;-70
2023/06/10 04:20:35;;;;;;;18.45;13.32;;;;;;;18.29;100.00;101319.91;5227498;28;20025;-70
2023/06/10 04:23:05;;;;;;;20.63;12.88;;;;;;;18.32;100.00;101319.50;5238198;28;20031;-70
2023/06/10 04:25:36;;;;;;;19.27;13.52;;;;;;;18.35;100.00;101327.22;5235402;28;20027;-70
2023/06/10 04:28:06;;;;;;;17.25;12.65;;;;;;;18.35;100.00;101321.78;5238848;28;20013;-70
2023/06/10 04:30:37;;;;;;;20.75;13.38;;;;;;;18.40;100.00;101331.19;5238459;28;20077;-70
2023/06/10 04:33:09;;;;;;;20.90;13.18;;;;;;;18.44;100.00;101327.03;5233242;28;20413;-70
2023/06/10 04:35:39;;;;;;;17.38;12.23;;;;;;;18.47;100.00;101332.88;5232582;28;20398;-70
2023/06/10 04:38:09;;;;;;;20.23;12.25;;;;;;;18.53;100.00;101337.50;5238380;28;20025;-70
2023/06/10 04:40:40;;;;;;;19.90;13.45;;;;;;;18.57;100.00;101333.31;5225463;28;20024;-70
2023/06/10 04:43:10;;;;;;;17.38;12.77;;;;;;;18.63;100.00;101340.66;5225880;28;20025;-70
2023/06/10 04:45:44;;;;;;;18.30;13.15;;;;;;;18.68;100.00;101340.06;5228134;28;20086;-69
2023/06/10 04:48:15;;;;;;;18.88;12.07;;;;;;;18.76;100.00;101336.28;5246110;28;20638;-70
2023/06/10 04:50:45;;;;;;;19.08;12.57;;;;;;;18.81;100.00;101341.94;5246126;28;20041;-70
2023/06/10 04:53:16;;;;;;;19.13;12.45;;;;;;;18.84;100.00;101339.63;5246188;28;20046;-70
2023/06/10 04:55:48;;;;;;;18.58;13.23;;;;;;;18.91;100.00;101336.09;5245845;28;20421;-70
2023/06/10 04:58:18;;;;;;;18.30;12.52;;;;;;;18.96;100.00;101336.28;5246037;28;20023;-70
2023/06/10 05:00:49;;;;;;;19.45;12.65;;;;;;;19.00;100.00;101340.25;5245804;28;20024;-70
2023/06/10 05:03:19;;;;;;;29.15;12.68;;;;;;;19.06;100.00;101333.97;5246043;28;20111;-70
2023/06/10 05:05:50;;;;;;;21.65;14.45;;;;;;;19.13;100.00;101337.56;5245479;28;20107;-70
2023/06/10 05:08:20;;;;;;;25.42;13.77;;;;;;;19.18;100.00;101337.75;5245798;28;20433;-70
2023/06/10 05:10:51;;;;;;;18.08;13.80;;;;;;;19.25;100.00;101333.13;5245349;28;20020;-70
2023/06/10 05:13:21;;;;;;;17.80;12.88;;;;;;;19.33;100.00;101332.91;5244431;28;20059;-70
2023/06/10 05:15:51;;;;;;;18.60;12.52;;;;;;;19.42;100.00;101336.22;5243579;28;20028;-70
2023/06/10 05:18:22;;;;;;;17.50;12.85;;;;;;;19.50;100.00;101340.63;5244945;28;20427;-70
2023/06/10 05:20:53;;;;;;;20.80;13.88;;;;;;;19.58;100.00;101334.94;5238928;28;20021;-70
2023/06/10 05:23:24;;;;;;;15.77;11.68;;;;;;;19.65;100.00;101339.34;5236502;28;20071;-70
2023/06/10 05:25:54;;;;;;;17.83;12.15;;;;;;;19.74;100.00;101339.94;5244912;28;20103;-70
2023/06/10 05:28:25;;;;;;;20.27;12.38;;;;;;;19.82;100.00;101338.84;5245346;28;20046;-70
2023/06/10 05:30:56;;;;;;;17.15;12.38;;;;;;;19.91;100.00;101341.13;5232397;28;20033;-70
2023/06/10 05:33:26;;;;;;;18.27;11.60;;;;;;;19.99;100.00;101342.78;5233728;28;20012;-71
2023/06/10 05:35:57;;;;;;;20.75;11.82;;;;;;;20.07;100.00;101345.25;5237952;28;20036;-71
2023/06/10 05:38:27;;;;;;;18.33;12.02;;;;;;;20.16;100.00;101343.09;5242616;28;20024;-70
2023/06/10 05:40:58;;;;;;;20.08;11.80;;;;;;;20.27;100.00;101344.31;5243194;28;20024;-70
2023/06/10 05:43:29;;;;;;;19.35;12.27;;;;;;;20.39;100.00;101353.47;5243510;28;20107;-70
2023/06/10 05:45:59;;;;;;;18.13;11.98;;;;;;;20.48;100.00;101345.88;5243082;28;20103;-70
2023/06/10 05:48:30;;;;;;;17.83;11.65;;;;;;;20.61;100.00;101343.91;5244327;28;20103;-71
2023/06/10 05:51:01;;;;;;;21.38;12.23;;;;;;;20.75;100.00;101352.84;5244444;28;20420;-71
2023/06/10 05:53:32;;;;;;;15.75;11.45;;;;;;;20.94;100.00;101351.03;5244477;28;20099;-70
2023/06/10 05:56:02;;;;;;;15.65;10.70;;;;;;;21.15;100.00;101358.78;5243912;28;20091;-70
2023/06/10 05:58:33;;;;;;;14.15;11.38;;;;;;;21.47;100.00;101358.72;5231009;28;20025;-71
2023/06/10 06:01:03;;;;;;;15.15;9.90;;;;;;;22.10;100.00;101361.13;5244701;28;20035;-71
2023/06/10 06:03:34;;;;;;;15.68;10.50;;;;;;;22.65;100.00;101362.94;5241738;28;20024;-71
2023/06/10 06:06:05;;;;;;;16.45;11.82;;;;;;;23.35;100.00;101356.72;5243438;28;20163;-71
2023/06/10 06:08:35;;;;;;;14.75;10.65;;;;;;;23.97;100.00;101360.56;5243834;28;20093;-71
2023/06/10 06:11:06;;;;;;;16.23;10.50;;;;;;;24.59;100.00;101357.13;5243965;28;20040;-71
2023/06/10 06:13:36;;;;;;;16.58;9.65;;;;;;;25.05;100.00;101360.63;5243668;28;20024;-71
2023/06/10 06:16:07;;;;;;;16.90;10.95;;;;;;;25.23;100.00;101363.16;5242908;28;20510;-71
2023/06/10 06:18:37;;;;;;;16.90;10.18;;;;;;;25.53;100.00;101368.25;5241819;28;20013;-71
2023/06/10 06:21:08;;;;;;;14.05;10.27;;;;;;;25.77;100.00;101362.59;5234554;28;20024;-71
2023/06/10 06:23:38;;;;;;;14.43;9.80;;;;;;;26.14;100.00;101362.75;5234305;28;20025;-71
2023/06/10 06:26:09;;;;;;;14.00;10.00;;;;;;;26.34;100.00;101362.97;5229092;28;20025;-71
2023/06/10 06:28:40;;;;;;;15.80;9.38;;;;;;;26.70;100.00;101360.59;5243372;28;20024;-71
2023/06/10 06:31:10;;;;;;;14.80;9.55;;;;;;;27.05;100.00;101362.81;5242713;28;20042;-71
2023/06/10 06:33:41;;;;;;;12.43;9.15;;;;;;;27.35;100.00;101370.50;5243278;28;20066;-71
2023/06/10 06:36:13;;;;;;;15.82;9.55;;;;;;;27.52;100.00;101367.59;5242869;28;20028;-72
2023/06/10 06:38:43;;;;;;;11.02;8.65;;;;;;;27.87;100.00;101361.44;5243828;28;20034;-72
2023/06/10 06:41:14;;;;;;;14.38;8.57;;;;;;;28.09;100.00;101360.41;5243067;28;20565;-71
2023/06/10 06:43:44;;;;;;;11.95;8.95;;;;;;;28.25;100.00;101369.56;5232360;28;20510;-71
2023/06/10 06:46:15;;;;;;;19.77;9.20;;;;;;;28.33;100.00;101369.91;5235694;28;20056;-71
2023/06/10 06:48:46;;;;;;;15.13;9.40;;;;;;;28.44;100.00;101365.22;5235876;28;20670;-71
2023/06/10 06:51:16;;;;;;;14.00;7.88;;;;;;;28.67;100.00;101376.84;5228818;28;20134;-71
2023/06/10 06:53:49;;;;;;;14.30;9.10;;;;;;;28.66;100.00;101376.00;5237499;28;20081;-71
2023/06/10 06:56:21;;;;;;;15.52;9.02;;;;;;;28.79;100.00;101374.66;5231137;28;20112;-71
2023/06/10 06:58:51;;;;;;;10.73;8.98;;;;;;;29.01;100.00;101374.41;5236474;28;20028;-71
2023/06/10 07:01:22;;;;;;;12.35;8.57;;;;;;;29.08;100.00;101377.72;5234225;28;20032;-72
2023/06/10 07:03:53;;;;;;;13.02;8.52;;;;;;;29.29;100.00;101373.81;5242132;28;20478;-72
2023/06/10 07:06:24;;;;;;;12.82;8.15;;;;;;;29.37;100.00;101375.22;5242209;28;20089;-71
2023/06/10 07:08:56;;;;;;;14.93;8.32;;;;;;;29.46;100.00;101370.75;5243357;28;20028;-72
2023/06/10 07:11:28;;;;;;;14.00;8.48;;;;;;;29.65;100.00;101374.59;5229802;28;20039;-71
2023/06/10 07:14:00;;;;;;;10.90;7.97;;;;;;;29.91;100.00;101378.09;5216881;28;20454;-71
2023/06/10 07:16:33;;;;;;;11.90;7.80;;;;;;;29.93;100.00;101381.41;5235081;28;20906;-71
2023/06/10 07:19:05;;;;;;;14.05;7.80;;;;;;;30.04;100.00;101381.38;5233191;28;20031;-72
2023/06/10 07:21:37;;;;;;;18.63;8.48;;;;;;;30.42;100.00;101379.78;5235257;28;20028;-71
2023/06/10 07:24:09;;;;;;;9.32;7.38;;;;;;;30.63;94.67;101391.56;5235012;28;20036;-72
2023/06/10 07:26:41;;;;;;;10.93;7.50;;;;;;;30.74;89.01;101387.63;5242597;28;20016;-72
2023/06/10 07:29:14;;;;;;;10.23;7.25;;;;;;;30.93;87.14;101394.13;5243089;28;20017;-72
2023/06/10 07:31:47;;;;;;;10.93;7.45;;;;;;;31.13;89.05;101389.53;5243642;28;20028;-72
2023/06/10 07:34:19;;;;;;;8.93;7.13;;;;;;;31.34;90.12;101401.28;5212346;28;20444;-72
2023/06/10 07:36:51;;;;;;;11.52;6.82;;;;;;;31.53;82.41;101396.66;5231970;28;20652;-72
2023/06/10 07:39:23;;;;;;;9.95;7.18;;;;;;;31.34;79.22;101395.72;5235383;28;20029;-73
2023/06/10 07:41:57;;;;;;;12.60;7.57;;;;;;;31.28;89.58;101402.44;5234570;28;20025;-72
2023/06/10 07:44:29;;;;;;;11.77;7.33;;;;;;;31.60;80.68;101399.88;5240969;28;20024;-72
2023/06/10 07:47:01;;;;;;;15.25;7.65;;;;;;;31.68;82.33;101401.19;5238966;28;20051;-72
2023/06/10 07:49:33;;;;;;;8.68;6.80;;;;;;;31.53;77.41;101402.19;5241602;28;20032;-72
2023/06/10 07:52:05;;;;;;;12.02;6.88;;;;;;;31.60;78.53;101394.34;5242991;28;20036;-72
2023/06/10 07:54:38;;;;;;;7.38;6.43;;;;;;;31.81;79.70;101396.88;5242839;28;20056;-72
2023/06/10 07:57:10;;;;;;;10.80;7.32;;;;;;;31.78;74.01;101394.69;5242394;28;20031;-72
2023/06/10 07:59:44;;;;;;;15.85;6.70;;;;;;;31.97;77.26;101399.19;5225177;28;20554;-72
2023/06/10 08:02:17;;;;;;;10.25;6.15;;;;;;;32.25;70.30;101393.03;5227496;28;20020;-72
2023/06/10 08:04:49;;;;;;;12.65;6.90;;;;;;;32.16;69.33;101395.63;5244703;28;20028;-72
2023/06/10 08:07:21;;;;;;;10.45;7.18;;;;;;;32.28;72.70;101392.41;5246118;28;20127;-73
2023/06/10 08:09:54;;;;;;;9.13;7.05;;;;;;;32.27;75.95;101388.81;5245923;28;20490;-73
2023/06/10 08:12:26;;;;;;;9.73;7.25;;;;;;;32.56;77.13;101387.88;5246059;28;20028;-73
2023/06/10 08:14:58;;;;;;;13.73;6.03;;;;;;;32.89;74.43;101397.94;5246003;28;20036;-72
2023/06/10 08:17:29;;;;;;;8.57;6.82;;;;;;;33.22;70.51;101392.34;5228170;28;20069;-73
2023/06/10 08:20:00;;;;;;;9.10;6.35;;;;;;;33.35;75.00;101385.16;5246149;28;20545;-73
2023/06/10 08:22:31;;;;;;;13.68;6.60;;;;;;;33.69;71.86;101394.00;5231381;28;20104;-72
2023/06/10 08:25:01;;;;;;;14.70;6.60;;;;;;;33.78;72.07;101390.47;5225702;28;20142;-73
2023/06/10 08:27:32;;;;;;;11.20;6.40;;;;;;;33.84;62.18;101390.06;5237983;28;20482;-73
2023/06/10 08:30:03;;;;;;;9.90;6.47;;;;;;;34.04;66.25;101397.19;5246487;28;20035;-72
2023/06/10 08:32:33;;;;;;;11.68;7.13;;;;;;;33.81;59.34;101384.28;5246293;28;20051;-73
2023/06/10 08:35:04;;;;;;;9.13;6.63;;;;;;;33.36;60.52;101387.63;5234311;28;20041;-73
2023/06/10 08:37:36;;;;;;;10.65;6.97;;;;;;;33.49;61.40;101388.81;5244540;28;20036;-73
2023/06/10 08:40:08;;;;;;;10.63;6.90;;;;;;;33.56;62.42;101393.97;5237392;28;20090;-73
2023/06/10 08:42:45;;;;;;;9.05;7.05;;;;;;;33.76;60.86;101393.56;5232494;28;20036;-73
2023/06/10 08:45:18;;;;;;;8.75;6.60;;;;;;;33.62;58.80;101399.13;5206896;28;20037;-73
2023/06/10 08:47:51;;;;;;;8.80;6.15;;;;;;;33.16;69.79;101386.06;5244945;28;20104;-73
2023/06/10 08:50:23;;;;;;;7.47;6.72;;;;;;;32.84;74.05;101388.81;5245329;28;20036;-73
2023/06/10 08:52:56;;;;;;;9.77;7.07;;;;;;;32.99;76.05;101391.38;5245932;28;20039;-72
2023/06/10 08:55:32;;;;;;;10.93;7.18;;;;;;;33.10;73.15;101390.06;5244987;28;20419;-73
2023/06/10 08:58:03;;;;;;;9.93;6.65;;;;;;;33.41;69.13;101393.09;5245454;28;20060;-73
2023/06/10 09:00:35;;;;;;;10.35;6.45;;;;;;;33.64;67.69;101396.88;5244098;28;20035;-72
2023/06/10 09:03:08;;;;;;;8.88;7.13;;;;;;;33.94;62.81;101395.44;5245056;28;20714;-72
2023/06/10 09:05:39;;;;;;;10.48;7.00;;;;;;;34.21;64.13;101391.78;5236251;28;20047;-72
2023/06/10 09:08:10;;;;;;;9.02;7.15;;;;;;;34.32;61.03;101391.56;5237936;28;20028;-73
2023/06/10 09:10:41;;;;;;;10.50;7.28;;;;;;;34.52;73.20;101388.34;5232195;28;20020;-73
2023/06/10 09:13:11;;;;;;;14.68;7.57;;;;;;;34.75;68.22;101386.41;5243704;28;20031;-72
2023/06/10 09:15:42;;;;;;;11.40;7.10;;;;;;;34.90;69.70;101391.59;5244699;28;20062;-73
2023/06/10 09:18:12;;;;;;;10.05;6.35;;;;;;;35.01;60.14;101383.81;5231491;28;20021;-73
2023/06/10 09:20:43;;;;;;;8.57;6.90;;;;;;;34.88;54.80;101390.25;5239788;28;20053;-73
2023/06/10 09:23:15;;;;;;;12.90;6.82;;;;;;;34.62;51.88;101382.50;5229195;28;20017;-73
2023/06/10 09:25:45;;;;;;;14.65;7.30;;;;;;;34.45;56.23;101383.22;5235597;28;20829;-73
2023/06/10 09:28:16;;;;;;;9.20;7.20;;;;;;;34.51;59.21;101381.94;5244989;28;20070;-73
2023/06/10 09:30:46;;;;;;;15.73;7.55;;;;;;;34.70;61.58;101384.56;5245066;28;20032;-72
2023/06/10 09:33:17;;;;;;;10.68;7.45;;;;;;;34.80;57.38;101380.69;5244962;28;20107;-73
2023/06/10 09:35:49;;;;;;;9.38;6.28;;;;;;;34.73;52.02;101383.91;5244092;28;20025;-73
2023/06/10 09:38:21;;;;;;;7.22;6.30;;;;;;;34.80;51.77;101379.88;5236052;28;20031;-73
2023/06/10 09:40:54;;;;;;;10.40;7.05;;;;;;;34.48;49.88;101387.31;5237549;28;20037;-72
2023/06/10 09:43:40;;;;;;;9.32;6.63;;;;;;;33.66;52.99;101371.53;5235055;28;20023;-73
2023/06/10 09:46:47;;;;;;;11.75;6.75;;;;;;;33.80;59.89;101377.09;5244232;28;20039;-73
2023/06/10 09:49:17;;;;;;;8.55;7.32;;;;;;;33.90;54.64;101376.88;5242686;28;20028;-72
2023/06/10 09:52:06;;;;;;;9.55;6.82;;;;;;;34.09;60.31;101366.47;5241909;28;20028;-72
2023/06/10 09:54:37;;;;;;;8.57;6.82;;;;;;;34.21;51.92;101375.09;5232041;28;20028;-72
2023/06/10 09:57:09;;;;;;;11.93;7.05;;;;;;;34.21;49.02;101371.47;5226967;28;20681;-73
2023/06/10 09:59:41;;;;;;;10.13;7.13;;;;;;;34.36;49.82;101370.31;5224339;28;20073;-72
2023/06/10 10:02:29;;;;;;;13.35;7.22;;;;;;;34.61;52.88;101368.91;5225114;28;20033;-73
2023/06/10 10:05:20;;;;;;;11.30;7.07;;;;;;;34.66;56.16;101375.19;5224834;28;20017;-73
2023/06/10 10:07:51;;;;;;;16.45;6.68;;;;;;;34.62;49.54;101373.34;5241324;28;20024;-73
2023/06/10 10:10:22;;;;;;;11.02;6.70;;;;;;;34.61;53.46;101372.50;5226058;28;20020;-73
2023/06/10 10:12:56;;;;;;;9.57;6.70;;;;;;;34.67;45.96;101368.47;5226012;28;20044;-73
2023/06/10 10:15:31;;;;;;;12.52;7.25;;;;;;;34.43;42.58;101367.91;5236272;28;20425;-73
2023/06/10 10:18:28;;;;;;;8.18;6.50;;;;;;;34.38;49.14;101373.59;5224213;28;20127;-73
2023/06/10 10:21:02;;;;;;;10.02;6.53;;;;;;;34.29;43.55;101365.19;5224028;28;20423;-73
2023/06/10 10:23:43;;;;;;;7.78;6.25;;;;;;;34.20;40.90;101365.09;5235558;28;20044;-73
2023/06/10 10:26:14;;;;;;;11.00;6.78;;;;;;;33.99;41.73;101359.16;5240376;28;20036;-72
2023/06/10 10:28:51;;;;;;;11.07;6.32;;;;;;;33.92;43.60;101358.72;5233516;28;20029;-73
2023/06/10 10:31:22;;;;;;;8.75;6.07;;;;;;;33.89;40.08;101361.28;5230153;28;20109;-73
2023/06/10 10:33:58;;;;;;;8.68;5.93;;;;;;;33.90;40.69;101366.56;5243971;28;20028;-73
2023/06/10 10:36:29;;;;;;;16.73;6.07;;;;;;;34.05;44.88;101354.31;5225341;28;20050;-72
2023/06/10 10:39:01;;;;;;;9.13;6.22;;;;;;;33.90;44.37;101360.16;5243826;28;20028;-73
2023/06/10 10:41:33;;;;;;;10.30;6.20;;;;;;;34.03;42.83;101364.09;5243900;28;20052;-72
2023/06/10 10:44:07;;;;;;;9.43;5.93;;;;;;;33.99;42.34;101359.16;5230458;28;20025;-73
2023/06/10 10:46:55;;;;;;;11.68;6.60;;;;;;;33.40;39.37;101357.25;5242484;28;20155;-73
2023/06/10 10:49:27;;;;;;;9.88;6.28;;;;;;;33.36;37.17;101356.22;5243678;28;20029;-73
2023/06/10 10:51:58;;;;;;;14.85;6.32;;;;;;;33.38;39.50;101353.94;5242650;28;20029;-73
2023/06/10 10:54:32;;;;;;;7.45;6.25;;;;;;;33.39;37.45;101350.06;5243205;28;20056;-73
2023/06/10 10:57:14;;;;;;;10.95;6.43;;;;;;;33.41;37.99;101350.56;5239522;28;20024;-72
2023/06/10 11:00:04;;;;;;;7.00;5.70;;;;;;;33.54;39.53;101338.66;5238543;28;20056;-73
2023/06/10 11:02:55;;;;;;;7.43;5.68;;;;;;;33.68;34.05;101342.25;5242332;28;20027;-72
2023/06/10 11:05:39;;;;;;;12.43;6.22;;;;;;;33.92;36.28;101342.00;5227525;28;20016;-73
2023/06/10 11:08:11;;;;;;;12.32;6.30;;;;;;;33.92;37.90;101343.97;5239494;28;20379;-73
2023/06/10 11:10:51;;;;;;;10.13;5.82;;;;;;;33.92;36.29;101335.63;5235053;28;20389;-73
2023/06/10 11:13:22;;;;;;;10.60;6.30;;;;;;;34.00;36.29;101337.72;5242837;28;20024;-73
2023/06/10 11:15:57;;;;;;;7.95;6.05;;;;;;;33.78;32.43;101337.59;5240404;28;20052;-73
2023/06/10 11:18:31;;;;;;;8.85;5.32;;;;;;;33.61;33.59;101336.28;5242388;28;20021;-73
2023/06/10 11:21:04;;;;;;;11.70;6.10;;;;;;;33.41;35.50;101326.38;5236689;28;20393;-73
2023/06/10 11:23:39;;;;;;;8.88;6.20;;;;;;;33.45;40.71;101323.81;5240708;28;20029;-72
2023/06/10 11:26:31;;;;;;;10.05;6.72;;;;;;;33.59;40.96;101323.81;5242618;28;20406;-73
2023/06/10 11:29:05;;;;;;;7.35;5.70;;;;;;;33.47;44.21;101318.75;5241983;28;20059;-73
2023/06/10 11:31:55;;;;;;;9.70;6.20;;;;;;;33.13;43.50;101325.50;5241581;28;20013;-73
2023/06/10 11:34:26;;;;;;;8.82;6.72;;;;;;;33.12;38.22;101317.47;5224069;28;20025;-73
2023/06/10 11:36:58;;;;;;;10.40;6.15;;;;;;;33.13;35.79;101327.47;5240801;28;20032;-73
2023/06/10 11:39:29;;;;;;;9.38;5.75;;;;;;;33.35;37.81;101326.78;5237143;28;20024;-73